Time;durP1;ratioP1;P1;durP2;ratioP2;P2;SDS_P1;SDS_P2;PMS_P1;PMS_P2;Temp;Humidity;BMP_temperature;BMP_pressure;BME280_temperature;BME280_humidity;BME280_pressure;Samples;Min_cycle;Max_cycle;Signal;HPM_P1;HPM_P2
2023/03/05 00:01:49;;;;;;;25.67;4.53;;;2.80;99.90;;;;;;4927840;29;21006;-53
2023/03/05 00:04:16;;;;;;;21.00;4.50;;;2.80;99.90;;;;;;4932903;29;20905;-51
2023/03/05 00:06:42;;;;;;;10.80;4.17;;;2.80;99.90;;;;;;4934597;29;20452;-51
2023/03/05 00:09:09;;;;;;;11.47;4.10;;;2.80;99.90;;;;;;4934336;29;20833;-51
2023/03/05 00:11:37;;;;;;;8.07;3.93;;;2.80;99.90;;;;;;4934721;29;20530;-51
2023/03/05 00:14:04;;;;;;;13.60;3.97;;;2.80;99.90;;;;;;4933232;29;20464;-51
2023/03/05 00:16:32;;;;;;;13.80;3.97;;;2.80;99.90;;;;;;4934320;29;20443;-51
2023/03/05 00:19:00;;;;;;;19.43;3.93;;;2.80;99.90;;;;;;4933840;29;20456;-51
2023/03/05 00:21:29;;;;;;;15.23;4.50;;;2.80;99.90;;;;;;4934009;29;20547;-51
2023/03/05 00:23:57;;;;;;;14.73;4.00;;;2.80;99.90;;;;;;4936436;29;20517;-51
2023/03/05 00:26:25;;;;;;;10.43;3.20;;;2.80;99.90;;;;;;4929713;29;20448;-51
2023/03/05 00:28:54;;;;;;;16.17;4.47;;;2.80;99.90;;;;;;4929669;29;20472;-51
2023/03/05 00:31:23;;;;;;;20.13;4.57;;;2.80;99.90;;;;;;4935317;29;20487;-53
2023/03/05 00:33:52;;;;;;;16.27;4.20;;;2.80;99.90;;;;;;4935457;29;20483;-51
2023/03/05 00:36:19;;;;;;;15.30;3.60;;;2.80;99.90;;;;;;4937492;29;21009;-52
2023/03/05 00:38:45;;;;;;;18.63;3.60;;;2.70;99.90;;;;;;4938466;29;20490;-51
2023/03/05 00:41:12;;;;;;;26.43;4.37;;;2.70;99.90;;;;;;4937436;29;20511;-51
2023/03/05 00:43:38;;;;;;;17.20;3.20;;;2.70;99.90;;;;;;4936557;29;20899;-51
2023/03/05 00:46:06;;;;;;;20.10;3.30;;;2.70;99.90;;;;;;4937406;29;20511;-51
2023/03/05 00:48:33;;;;;;;14.73;3.93;;;2.70;99.90;;;;;;4937184;29;20479;-51
2023/03/05 00:50:59;;;;;;;10.07;3.20;;;2.70;99.90;;;;;;4937121;29;20574;-51
2023/03/05 00:53:26;;;;;;;21.97;3.77;;;2.70;99.90;;;;;;4937412;29;20785;-52
2023/03/05 00:55:53;;;;;;;13.87;3.47;;;2.70;99.90;;;;;;4936878;29;20464;-51
2023/03/05 00:58:19;;;;;;;14.43;3.10;;;2.60;99.90;;;;;;4936732;29;20479;-51
2023/03/05 01:00:49;;;;;;;13.23;3.23;;;2.60;99.90;;;;;;4936745;29;20488;-51
2023/03/05 01:03:17;;;;;;;13.60;3.50;;;2.60;99.90;;;;;;4937234;29;20828;-53
2023/03/05 01:05:43;;;;;;;17.73;4.40;;;2.60;99.90;;;;;;4936478;29;20526;-51
2023/03/05 01:08:11;;;;;;;12.30;3.33;;;2.60;99.90;;;;;;4936941;29;20464;-51
2023/03/05 01:10:37;;;;;;;12.40;3.60;;;2.60;99.90;;;;;;4936366;29;20491;-52
2023/03/05 01:13:04;;;;;;;10.50;3.00;;;2.50;99.90;;;;;;4935504;29;20582;-52
2023/03/05 01:15:30;;;;;;;9.37;2.90;;;2.50;99.90;;;;;;4937787;29;20495;-52
2023/03/05 01:17:57;;;;;;;12.70;2.50;;;2.50;99.90;;;;;;4929949;29;20481;-51
2023/03/05 01:20:25;;;;;;;6.47;2.80;;;2.40;23.00;;;;;;4939610;28;20545;-52
2023/03/05 01:22:51;;;;;;;8.90;3.07;;;2.40;31.30;;;;;;4934437;29;21294;-53
2023/03/05 01:25:18;;;;;;;11.47;3.10;;;2.40;39.00;;;;;;4931240;29;20583;-52
2023/03/05 01:27:45;;;;;;;7.83;2.77;;;2.40;40.60;;;;;;4929691;29;20468;-51
2023/03/05 01:30:14;;;;;;;14.23;3.13;;;2.30;46.20;;;;;;4936214;29;20936;-51
2023/03/05 01:32:40;;;;;;;9.87;2.70;;;2.30;50.90;;;;;;4943759;29;20463;-52
2023/03/05 01:35:08;;;;;;;10.80;3.10;;;2.30;49.60;;;;;;4941647;29;21009;-52
2023/03/05 01:37:36;;;;;;;8.33;2.60;;;2.20;54.00;;;;;;4938301;29;20554;-51
2023/03/05 01:40:04;;;;;;;6.30;2.90;;;2.20;55.00;;;;;;4932592;29;20522;-53
2023/03/05 01:42:31;;;;;;;12.53;2.90;;;2.10;55.20;;;;;;4957110;23;20614;-53
2023/03/05 01:45:03;;;;;;;10.53;3.03;;;2.10;59.10;;;;;;4951228;28;20460;-52
2023/03/05 01:47:30;;;;;;;13.33;2.63;;;2.10;61.80;;;;;;4957171;28;20450;-51
2023/03/05 01:49:57;;;;;;;11.70;3.03;;;2.10;66.70;;;;;;4955060;28;20482;-51
2023/03/05 01:52:26;;;;;;;6.33;2.90;;;2.00;65.70;;;;;;4955158;28;20529;-51
2023/03/05 01:54:58;;;;;;;11.10;2.90;;;2.00;68.00;;;;;;4949339;28;20620;-51
2023/03/05 01:57:28;;;;;;;13.43;3.00;;;1.90;69.60;;;;;;4950080;28;20495;-52
2023/03/05 01:59:59;;;;;;;7.80;2.17;;;1.80;71.60;;;;;;4950499;28;20522;-52
2023/03/05 02:02:25;;;;;;;3.77;2.50;;;1.80;72.60;;;;;;4960530;28;20537;-53
2023/03/05 02:04:57;;;;;;;9.63;2.57;;;1.70;72.70;;;;;;4960884;28;20446;-53
2023/03/05 02:07:24;;;;;;;2.73;2.17;;;1.70;75.20;;;;;;4974279;28;20504;-51
2023/03/05 02:09:51;;;;;;;10.50;2.47;;;1.60;74.90;;;;;;4953817;28;20510;-52
2023/03/05 02:12:19;;;;;;;3.70;2.27;;;1.60;76.00;;;;;;4946993;28;20486;-51
2023/03/05 02:14:48;;;;;;;6.83;2.03;;;1.60;76.70;;;;;;4955945;28;20466;-50
2023/03/05 02:17:15;;;;;;;6.37;2.87;;;1.50;75.30;;;;;;4954965;28;20862;-52
2023/03/05 02:19:50;;;;;;;8.67;3.47;;;1.40;76.90;;;;;;4935554;29;20510;-52
2023/03/05 02:22:19;;;;;;;8.27;1.90;;;1.40;77.50;;;;;;4947093;28;20588;-52
2023/03/05 02:24:45;;;;;;;11.67;2.60;;;1.50;77.70;;;;;;4946462;28;20498;-52
2023/03/05 02:27:13;;;;;;;7.07;2.50;;;1.40;77.90;;;;;;4955563;28;20459;-51
2023/03/05 02:29:44;;;;;;;8.17;2.63;;;1.40;77.70;;;;;;4948167;28;20464;-52
2023/03/05 02:32:11;;;;;;;4.17;2.00;;;1.40;78.20;;;;;;4946592;29;20845;-52
2023/03/05 02:34:38;;;;;;;8.20;2.10;;;1.40;79.30;;;;;;4954465;28;20466;-52
2023/03/05 02:37:07;;;;;;;9.43;2.17;;;1.40;77.20;;;;;;4950351;28;20467;-52
2023/03/05 02:39:36;;;;;;;6.63;2.80;;;1.50;80.20;;;;;;4948923;28;20604;-52
2023/03/05 02:42:03;;;;;;;6.43;2.03;;;1.50;81.20;;;;;;4954086;28;20475;-51
2023/03/05 02:44:29;;;;;;;5.33;2.43;;;1.50;83.00;;;;;;4956714;28;20462;-52
2023/03/05 02:46:57;;;;;;;6.03;2.20;;;1.50;81.30;;;;;;4954164;28;20439;-52
2023/03/05 02:49:23;;;;;;;5.73;2.30;;;1.50;80.40;;;;;;4960711;28;20477;-52
2023/03/05 02:51:50;;;;;;;5.60;1.87;;;1.50;81.80;;;;;;4958510;28;20494;-52
2023/03/05 02:54:16;;;;;;;4.90;2.50;;;1.50;80.90;;;;;;4952729;28;20525;-52
2023/03/05 02:56:44;;;;;;;8.13;3.30;;;1.50;81.20;;;;;;4953824;28;20459;-52
2023/03/05 02:59:11;;;;;;;8.10;2.07;;;1.50;81.50;;;;;;4951200;28;20891;-52
2023/03/05 03:01:37;;;;;;;4.67;2.40;;;1.50;81.00;;;;;;4958835;28;20489;-52
2023/03/05 03:04:04;;;;;;;10.73;2.37;;;1.50;83.20;;;;;;4952236;28;20479;-52
2023/03/05 03:06:31;;;;;;;11.60;2.53;;;1.50;82.30;;;;;;4948993;28;20500;-52
2023/03/05 03:08:58;;;;;;;5.40;2.00;;;1.60;83.70;;;;;;4948365;28;20467;-53
2023/03/05 03:11:24;;;;;;;11.87;2.70;;;1.60;81.60;;;;;;4953336;28;20490;-52
2023/03/05 03:13:52;;;;;;;4.80;2.20;;;1.60;81.20;;;;;;4951212;29;20451;-52
2023/03/05 03:16:19;;;;;;;8.50;1.83;;;1.60;82.20;;;;;;4953970;28;20450;-52
2023/03/05 03:18:47;;;;;;;13.00;3.00;;;1.50;81.00;;;;;;4951960;28;20521;-52
2023/03/05 03:21:18;;;;;;;5.70;2.07;;;1.60;82.10;;;;;;4951974;28;20486;-52
2023/03/05 03:23:45;;;;;;;6.83;2.30;;;1.60;81.50;;;;;;4952321;28;20517;-51
2023/03/05 03:26:11;;;;;;;9.23;3.40;;;1.60;81.50;;;;;;4951833;28;21052;-52
2023/03/05 03:28:38;;;;;;;7.70;3.07;;;1.60;80.70;;;;;;4952602;28;20961;-52
2023/03/05 03:31:06;;;;;;;5.93;2.70;;;1.60;79.50;;;;;;4949871;28;20494;-52
2023/03/05 03:33:33;;;;;;;10.67;3.10;;;1.50;78.90;;;;;;4950720;29;20595;-52
2023/03/05 03:36:00;;;;;;;6.17;2.70;;;1.60;83.30;;;;;;4951623;28;20510;-52
2023/03/05 03:38:26;;;;;;;2.93;2.10;;;1.60;83.10;;;;;;4952724;28;20525;-52
2023/03/05 03:40:53;;;;;;;9.97;2.20;;;1.60;82.80;;;;;;4943440;28;20470;-52
2023/03/05 03:43:20;;;;;;;10.07;2.80;;;1.60;83.30;;;;;;4954490;28;20894;-52
2023/03/05 03:45:46;;;;;;;4.10;2.10;;;1.70;82.10;;;;;;4950575;28;20466;-52
2023/03/05 03:48:14;;;;;;;7.67;3.20;;;1.70;80.90;;;;;;4952245;28;20502;-52
2023/03/05 03:50:41;;;;;;;12.43;2.43;;;1.70;79.40;;;;;;4949519;28;20478;-52
2023/03/05 03:53:08;;;;;;;5.03;2.27;;;1.60;76.90;;;;;;4952059;28;21019;-52
2023/03/05 03:55:35;;;;;;;10.67;2.93;;;1.60;73.10;;;;;;4952658;28;20533;-52
2023/03/05 03:58:03;;;;;;;5.43;2.30;;;1.60;68.90;;;;;;4952514;28;20462;-52
2023/03/05 04:00:29;;;;;;;7.20;2.40;;;1.60;68.50;;;;;;4945297;28;20502;-52
2023/03/05 04:02:56;;;;;;;6.63;2.43;;;1.60;67.10;;;;;;4959171;28;20458;-52
2023/03/05 04:05:24;;;;;;;9.70;2.13;;;1.60;63.50;;;;;;4951818;28;20480;-52
2023/03/05 04:07:50;;;;;;;7.77;2.10;;;1.70;61.70;;;;;;4949075;28;20439;-52
2023/03/05 04:10:17;;;;;;;6.10;2.37;;;1.60;60.50;;;;;;4952301;28;20893;-52
2023/03/05 04:12:45;;;;;;;5.87;2.70;;;1.60;59.30;;;;;;4954704;28;20487;-52
2023/03/05 04:15:12;;;;;;;5.77;1.87;;;1.60;57.40;;;;;;4955217;28;20494;-52
2023/03/05 04:17:38;;;;;;;13.90;2.30;;;1.60;55.70;;;;;;4948413;28;20467;-52
2023/03/05 04:20:08;;;;;;;9.90;2.37;;;1.60;54.90;;;;;;4957806;28;20468;-52
2023/03/05 04:22:37;;;;;;;8.03;1.87;;;1.50;51.90;;;;;;4953764;29;20490;-52
2023/03/05 04:25:05;;;;;;;6.50;2.30;;;1.50;51.40;;;;;;4947248;28;20468;-52
2023/03/05 04:27:32;;;;;;;6.17;2.30;;;1.50;49.10;;;;;;4954625;28;20467;-52
2023/03/05 04:29:58;;;;;;;5.63;2.43;;;1.50;47.50;;;;;;4954360;28;20879;-52
2023/03/05 04:32:27;;;;;;;1.60;1.40;;;1.50;44.30;;;;;;4943391;28;20506;-52
2023/03/05 04:34:53;;;;;;;5.70;2.07;;;1.50;43.10;;;;;;4951716;29;20885;-52
2023/03/05 04:37:20;;;;;;;9.93;2.20;;;1.50;42.10;;;;;;4949568;29;20486;-52
2023/03/05 04:39:48;;;;;;;15.83;2.43;;;1.40;38.60;;;;;;4954849;28;20530;-52
2023/03/05 04:42:15;;;;;;;5.20;2.20;;;1.50;38.00;;;;;;4954966;28;20537;-52
2023/03/05 04:44:41;;;;;;;9.50;2.17;;;1.50;33.10;;;;;;4956820;28;20553;-52
2023/03/05 04:47:08;;;;;;;12.30;2.67;;;1.40;30.50;;;;;;4949317;28;20464;-52
2023/03/05 04:49:34;;;;;;;5.63;2.10;;;1.40;29.00;;;;;;4956448;28;20461;-52
2023/03/05 04:52:01;;;;;;;8.60;2.23;;;1.40;25.50;;;;;;4955778;28;20555;-52
2023/03/05 04:54:28;;;;;;;6.83;1.90;;;1.40;24.50;;;;;;4954727;28;20941;-52
2023/03/05 04:56:55;;;;;;;4.37;1.50;;;1.40;23.70;;;;;;4952657;28;20467;-52
2023/03/05 04:59:22;;;;;;;5.93;2.67;;;1.30;21.50;;;;;;4954987;28;20478;-52
2023/03/05 05:01:49;;;;;;;10.50;2.30;;;1.40;77.20;;;;;;4959235;28;20814;-52
2023/03/05 05:04:15;;;;;;;6.63;1.87;;;1.40;77.30;;;;;;4955638;28;20518;-52
2023/03/05 05:06:42;;;;;;;14.00;2.90;;;1.40;85.60;;;;;;4956164;28;20454;-52
2023/03/05 05:09:08;;;;;;;9.03;2.40;;;1.40;91.20;;;;;;4954841;29;20471;-52
2023/03/05 05:11:35;;;;;;;6.17;2.07;;;1.40;74.70;;;;;;4951611;28;20490;-52
2023/03/05 05:14:03;;;;;;;4.30;1.80;;;1.40;81.90;;;;;;4954499;28;20955;-52
2023/03/05 05:16:30;;;;;;;6.57;2.20;;;1.40;91.50;;;;;;4955841;28;21049;-52
2023/03/05 05:18:56;;;;;;;21.10;2.23;;;1.40;99.90;;;;;;4956537;28;20514;-52
2023/03/05 05:21:23;;;;;;;6.13;2.30;;;1.30;98.50;;;;;;4954687;28;20474;-52
2023/03/05 05:23:49;;;;;;;7.77;1.90;;;1.30;99.90;;;;;;4958911;28;20470;-52
2023/03/05 05:26:16;;;;;;;4.97;1.70;;;1.30;99.90;;;;;;4955846;28;20471;-52
2023/03/05 05:28:43;;;;;;;5.93;2.40;;;1.20;99.90;;;;;;4955596;28;20518;-52
2023/03/05 05:31:13;;;;;;;5.83;2.30;;;1.10;99.90;;;;;;4955468;28;20487;-52
2023/03/05 05:33:40;;;;;;;7.03;2.00;;;1.10;99.90;;;;;;4957527;28;20475;-51
2023/03/05 05:36:10;;;;;;;4.80;1.90;;;1.00;99.90;;;;;;4954771;28;20462;-51
2023/03/05 05:38:37;;;;;;;6.93;2.50;;;0.90;99.90;;;;;;4953157;28;20467;-51
2023/03/05 05:41:05;;;;;;;10.53;2.30;;;0.90;99.90;;;;;;4954169;28;20835;-51
2023/03/05 05:43:32;;;;;;;5.50;1.90;;;0.90;99.90;;;;;;4951937;28;20466;-51
2023/03/05 05:46:00;;;;;;;8.47;2.43;;;0.90;99.90;;;;;;4953308;28;20463;-51
2023/03/05 05:48:28;;;;;;;14.93;2.43;;;0.90;99.90;;;;;;4950884;28;20819;-51
2023/03/05 05:50:55;;;;;;;13.30;1.90;;;0.90;99.90;;;;;;4945744;28;20490;-51
2023/03/05 05:53:21;;;;;;;3.10;2.10;;;0.90;99.90;;;;;;4954165;28;20467;-51
2023/03/05 05:55:48;;;;;;;5.60;1.90;;;0.90;99.90;;;;;;4953550;28;20471;-51
2023/03/05 05:58:15;;;;;;;5.23;2.10;;;0.90;99.90;;;;;;4955067;28;20455;-51
2023/03/05 06:00:41;;;;;;;4.03;1.83;;;0.80;99.90;;;;;;4953362;28;20514;-52
2023/03/05 06:03:08;;;;;;;13.20;2.10;;;0.80;99.90;;;;;;4952642;28;20956;-50
2023/03/05 06:05:36;;;;;;;3.13;2.00;;;0.80;99.90;;;;;;4950626;28;20841;-51
2023/03/05 06:08:02;;;;;;;4.33;1.70;;;0.90;99.90;;;;;;4957203;28;20957;-51
2023/03/05 06:10:29;;;;;;;6.83;2.30;;;0.90;99.90;;;;;;4954244;28;20557;-51
2023/03/05 06:12:56;;;;;;;12.40;2.40;;;1.00;99.90;;;;;;4971856;28;20482;-51
2023/03/05 06:15:22;;;;;;;8.67;2.33;;;1.00;99.90;;;;;;4954191;28;20514;-51
2023/03/05 06:17:49;;;;;;;4.10;2.27;;;1.10;99.90;;;;;;4948132;28;20463;-51
2023/03/05 06:20:16;;;;;;;5.57;2.10;;;1.10;99.90;;;;;;4955289;28;20518;-51
2023/03/05 06:22:44;;;;;;;9.53;2.30;;;1.00;99.90;;;;;;4954521;28;20518;-52
2023/03/05 06:25:10;;;;;;;4.93;2.23;;;1.10;99.90;;;;;;4954219;28;20451;-52
2023/03/05 06:27:38;;;;;;;5.97;2.60;;;1.10;99.90;;;;;;4954558;28;20443;-50
2023/03/05 06:30:06;;;;;;;8.13;2.70;;;1.10;99.90;;;;;;4953202;28;20475;-54
2023/03/05 06:32:32;;;;;;;4.13;2.33;;;1.10;99.90;;;;;;4948323;28;20499;-52
2023/03/05 06:34:59;;;;;;;8.30;2.63;;;1.30;99.90;;;;;;4958043;28;20514;-52
2023/03/05 06:37:25;;;;;;;7.30;3.13;;;1.30;99.90;;;;;;4956631;28;20944;-51
2023/03/05 06:39:53;;;;;;;5.50;2.67;;;1.30;99.90;;;;;;4963918;28;20885;-51
2023/03/05 06:42:20;;;;;;;3.70;1.90;;;1.40;99.90;;;;;;4954011;28;20542;-50
2023/03/05 06:44:46;;;;;;;9.00;2.27;;;1.50;99.90;;;;;;4952457;28;20467;-53
2023/03/05 06:47:13;;;;;;;3.57;2.00;;;1.40;99.90;;;;;;4954552;28;20541;-51
2023/03/05 06:49:40;;;;;;;4.93;2.23;;;1.50;99.90;;;;;;4955691;28;20467;-51
2023/03/05 06:52:08;;;;;;;10.93;2.70;;;1.50;99.90;;;;;;4953580;28;20561;-50
2023/03/05 06:54:36;;;;;;;5.63;1.60;;;1.60;99.90;;;;;;4955035;28;20945;-51
2023/03/05 06:57:04;;;;;;;7.20;2.20;;;1.60;99.90;;;;;;4953458;28;20466;-51
2023/03/05 06:59:30;;;;;;;7.40;1.77;;;1.70;99.90;;;;;;4951588;28;20518;-51
2023/03/05 07:01:57;;;;;;;6.70;2.57;;;1.70;99.90;;;;;;4951445;28;20483;-55
2023/03/05 07:04:23;;;;;;;7.33;2.30;;;1.70;99.90;;;;;;4949667;28;20694;-52
2023/03/05 07:06:50;;;;;;;2.53;2.23;;;1.70;99.90;;;;;;4949199;29;20458;-51
2023/03/05 07:09:17;;;;;;;2.67;2.20;;;1.80;99.90;;;;;;4950829;28;20467;-51
2023/03/05 07:11:43;;;;;;;3.40;1.83;;;1.80;99.90;;;;;;4947152;28;20491;-50
2023/03/05 07:14:11;;;;;;;5.47;1.97;;;1.90;99.90;;;;;;4941670;29;20471;-51
2023/03/05 07:16:38;;;;;;;3.90;2.50;;;1.90;99.90;;;;;;4964420;28;20450;-52
2023/03/05 07:19:06;;;;;;;9.53;2.17;;;1.90;99.90;;;;;;4965145;28;20872;-51
2023/03/05 07:21:34;;;;;;;5.80;2.40;;;2.00;99.90;;;;;;4956391;28;20488;-50
2023/03/05 07:24:02;;;;;;;4.73;1.93;;;2.00;95.80;;;;;;4950944;28;20471;-50
2023/03/05 07:26:32;;;;;;;9.93;2.67;;;2.00;77.30;;;;;;4952095;28;20497;-51
2023/03/05 07:28:59;;;;;;;5.97;2.70;;;2.00;24.90;;;;;;4954125;28;20459;-50
2023/03/05 07:31:30;;;;;;;2.23;2.07;;;2.00;23.60;;;;;;4952905;28;20601;-50
2023/03/05 07:33:58;;;;;;;5.93;2.10;;;2.10;26.70;;;;;;4949267;28;20491;-52
2023/03/05 07:36:24;;;;;;;6.77;1.97;;;2.10;25.80;;;;;;4950567;28;20525;-52
2023/03/05 07:38:51;;;;;;;5.90;2.03;;;2.10;27.10;;;;;;4961926;28;20461;-52
2023/03/05 07:41:19;;;;;;;5.03;2.03;;;2.20;32.60;;;;;;4956343;28;20505;-52
2023/03/05 07:43:46;;;;;;;9.27;2.13;;;2.30;33.30;;;;;;4957668;28;20469;-53
2023/03/05 07:46:15;;;;;;;3.03;1.93;;;2.40;41.90;;;;;;4952473;29;20443;-53
2023/03/05 07:48:43;;;;;;;3.70;1.50;;;2.40;43.10;;;;;;4960153;28;20486;-53
2023/03/05 07:51:13;;;;;;;7.13;2.07;;;2.50;45.10;;;;;;4954965;28;20490;-53
2023/03/05 07:53:40;;;;;;;5.77;2.20;;;2.50;48.20;;;;;;4959717;28;20466;-53
2023/03/05 07:56:07;;;;;;;12.17;3.47;;;2.50;49.60;;;;;;4970814;28;20505;-53
2023/03/05 07:58:34;;;;;;;11.53;2.50;;;2.40;52.50;;;;;;4959591;28;21062;-53
2023/03/05 08:01:01;;;;;;;5.33;2.50;;;2.50;51.00;;;;;;4956988;28;20486;-53
2023/03/05 08:03:27;;;;;;;4.40;2.03;;;2.40;49.60;;;;;;4954094;29;20449;-53
2023/03/05 08:05:55;;;;;;;6.37;2.00;;;2.50;51.60;;;;;;4956915;28;20471;-53
2023/03/05 08:08:23;;;;;;;3.93;2.00;;;2.50;52.90;;;;;;4950485;28;20468;-53
2023/03/05 08:10:49;;;;;;;9.60;2.60;;;2.70;52.80;;;;;;4960578;28;20823;-53
2023/03/05 08:13:16;;;;;;;6.60;2.10;;;2.80;58.80;;;;;;4956638;28;20533;-52
2023/03/05 08:15:43;;;;;;;12.93;2.20;;;3.10;58.10;;;;;;4960904;28;20869;-52
2023/03/05 08:18:10;;;;;;;7.70;2.83;;;3.80;65.50;;;;;;4952846;28;20471;-53
2023/03/05 08:20:36;;;;;;;4.03;2.00;;;4.60;87.80;;;;;;4959401;28;20466;-53
2023/03/05 08:23:04;;;;;;;6.77;2.13;;;4.80;99.60;;;;;;4959478;28;20517;-53
2023/03/05 08:25:31;;;;;;;8.97;2.80;;;4.00;99.90;;;;;;4964149;28;20446;-53
2023/03/05 08:27:59;;;;;;;4.57;2.00;;;3.50;96.30;;;;;;4960636;28;20478;-53
2023/03/05 08:30:26;;;;;;;5.30;2.30;;;3.70;92.90;;;;;;4951908;28;20521;-53
2023/03/05 08:32:54;;;;;;;6.60;2.67;;;3.90;99.40;;;;;;4962861;28;20489;-53
2023/03/05 08:35:21;;;;;;;3.47;2.00;;;4.00;99.10;;;;;;4955983;28;20462;-53
2023/03/05 08:37:48;;;;;;;6.43;2.63;;;4.20;99.90;;;;;;4956308;28;20514;-53
2023/03/05 08:40:18;;;;;;;6.27;2.20;;;4.30;99.90;;;;;;4955976;28;21054;-53
2023/03/05 08:42:45;;;;;;;6.70;2.47;;;4.50;99.90;;;;;;4962059;28;20497;-53
2023/03/05 08:45:12;;;;;;;2.30;1.87;;;4.70;99.90;;;;;;4963979;28;20467;-53
2023/03/05 08:47:39;;;;;;;10.90;2.90;;;5.10;99.90;;;;;;4959067;28;20470;-51
2023/03/05 08:50:06;;;;;;;3.53;2.43;;;4.90;99.90;;;;;;4952636;28;20853;-53
2023/03/05 08:52:34;;;;;;;3.27;1.67;;;4.90;99.90;;;;;;4954026;28;20487;-53
2023/03/05 08:55:00;;;;;;;11.90;2.50;;;4.80;99.90;;;;;;4952225;28;20471;-53
2023/03/05 08:57:28;;;;;;;4.97;2.23;;;4.80;99.90;;;;;;4954014;28;20470;-53
2023/03/05 08:59:55;;;;;;;5.10;1.93;;;4.50;99.90;;;;;;4952124;28;20467;-53
2023/03/05 09:02:22;;;;;;;6.43;1.80;;;4.60;99.90;;;;;;4942227;29;20487;-53
2023/03/05 09:04:48;;;;;;;7.20;2.00;;;4.30;99.90;;;;;;4949493;28;20458;-52
2023/03/05 09:07:15;;;;;;;4.83;2.50;;;4.10;99.90;;;;;;4948236;28;20518;-53
2023/03/05 09:09:41;;;;;;;4.10;2.20;;;4.10;99.90;;;;;;4949712;28;20470;-53
2023/03/05 09:12:10;;;;;;;3.47;1.73;;;3.80;99.90;;;;;;4954030;28;21056;-53
2023/03/05 09:14:38;;;;;;;4.20;2.47;;;3.70;99.90;;;;;;4952687;28;21035;-53
2023/03/05 09:17:05;;;;;;;4.27;1.87;;;3.60;99.90;;;;;;4953349;28;21007;-52
2023/03/05 09:19:32;;;;;;;4.13;1.90;;;3.50;99.90;;;;;;4958114;28;20525;-52
2023/03/05 09:21:58;;;;;;;2.63;2.23;;;3.50;99.90;;;;;;4953026;28;20925;-51
2023/03/05 09:24:25;;;;;;;2.77;1.83;;;3.40;99.90;;;;;;4953818;28;20475;-51
2023/03/05 09:26:52;;;;;;;7.23;2.80;;;3.40;99.90;;;;;;4950577;28;20462;-51
2023/03/05 09:29:18;;;;;;;20.87;3.00;;;3.50;99.90;;;;;;4947504;28;20466;-51
2023/03/05 09:31:50;;;;;;;3.90;2.00;;;3.50;99.90;;;;;;4954697;28;20537;-52
2023/03/05 09:34:17;;;;;;;7.33;2.20;;;3.70;99.90;;;;;;4951521;28;20517;-52
2023/03/05 09:36:44;;;;;;;8.17;3.63;;;3.70;99.90;;;;;;4944204;28;20467;-52
2023/03/05 09:39:10;;;;;;;15.13;2.80;;;3.80;99.90;;;;;;4948859;28;20467;-52
2023/03/05 09:42:05;;;;;;;3.80;2.30;;;3.60;99.90;;;;;;4951121;28;20494;-51
2023/03/05 09:44:40;;;;;;;4.40;2.00;;;3.50;99.90;;;;;;4953908;28;20455;-52
2023/03/05 09:47:26;;;;;;;1.83;1.53;;;3.50;99.90;;;;;;4953749;28;20462;-52
2023/03/05 09:49:58;;;;;;;7.20;2.83;;;3.80;99.90;;;;;;4954065;28;20886;-52
2023/03/05 09:52:36;;;;;;;2.40;2.20;;;3.60;99.90;;;;;;4951418;29;20578;-52
2023/03/05 09:55:04;;;;;;;2.20;1.73;;;3.60;99.90;;;;;;4953176;28;21023;-51
2023/03/05 09:57:40;;;;;;;3.43;1.90;;;3.70;99.90;;;;;;4953508;28;20885;-51
2023/03/05 10:00:21;;;;;;;8.47;2.60;;;3.50;99.90;;;;;;4952240;28;20859;-51
2023/03/05 10:02:54;;;;;;;2.13;1.93;;;3.70;99.90;;;;;;4952760;28;20478;-51
2023/03/05 10:05:28;;;;;;;3.43;2.10;;;3.80;99.90;;;;;;4952651;28;20467;-52
2023/03/05 10:07:59;;;;;;;2.20;1.83;;;3.80;99.90;;;;;;4953101;28;20458;-51
2023/03/05 10:10:32;;;;;;;4.27;2.40;;;3.90;99.90;;;;;;4954058;28;20847;-51
2023/03/05 10:13:05;;;;;;;3.17;2.07;;;3.90;99.90;;;;;;4952401;29;21560;-52
2023/03/05 10:15:39;;;;;;;2.00;1.80;;;3.70;99.90;;;;;;4955242;28;20518;-52
2023/03/05 10:18:19;;;;;;;2.60;1.37;;;3.60;99.90;;;;;;4954317;28;20451;-51
2023/03/05 10:20:56;;;;;;;4.40;2.00;;;3.50;99.90;;;;;;4950594;28;20534;-52
2023/03/05 10:23:45;;;;;;;2.67;1.83;;;3.50;99.90;;;;;;4954001;28;20525;-51
2023/03/05 10:26:27;;;;;;;3.13;1.70;;;3.50;99.90;;;;;;4938617;28;21104;-51
2023/03/05 10:29:05;;;;;;;8.20;1.90;;;3.90;99.90;;;;;;4953687;28;20470;-51
2023/03/05 10:31:49;;;;;;;5.87;2.30;;;4.20;99.90;;;;;;4952130;28;20487;-51
2023/03/05 10:34:46;;;;;;;6.97;4.10;;;4.40;99.90;;;;;;4958379;28;20534;-51
2023/03/05 10:37:38;;;;;;;4.27;2.53;;;4.30;99.90;;;;;;4946397;28;20466;-52
2023/03/05 10:40:18;;;;;;;7.47;4.67;;;3.90;99.90;;;;;;4952653;28;20467;-50
2023/03/05 10:42:53;;;;;;;6.80;4.03;;;3.80;99.90;;;;;;4952771;28;20549;-50
2023/03/05 10:45:24;;;;;;;7.53;2.83;;;3.80;99.90;;;;;;4953351;28;20470;-52
2023/03/05 10:47:54;;;;;;;3.73;1.87;;;3.60;99.90;;;;;;4952126;28;20467;-52
2023/03/05 10:50:24;;;;;;;5.23;2.13;;;3.30;99.90;;;;;;4948055;28;20471;-51
2023/03/05 10:53:03;;;;;;;4.77;1.70;;;3.10;99.90;;;;;;4950506;28;20564;-52
2023/03/05 10:55:30;;;;;;;13.30;3.50;;;3.00;99.90;;;;;;4947086;28;20462;-51
2023/03/05 10:57:56;;;;;;;4.73;2.27;;;2.90;96.20;;;;;;4951802;28;20470;-52
2023/03/05 11:00:25;;;;;;;5.27;2.00;;;3.20;99.90;;;;;;4948758;28;20956;-52
2023/03/05 11:02:55;;;;;;;3.40;2.27;;;3.20;99.90;;;;;;4951510;29;20877;-51
2023/03/05 11:05:43;;;;;;;4.73;2.20;;;3.10;99.90;;;;;;4944754;28;20519;-51
2023/03/05 11:08:27;;;;;;;5.23;2.70;;;3.20;99.90;;;;;;4948348;28;20518;-51
2023/03/05 11:11:15;;;;;;;4.10;2.27;;;3.30;99.90;;;;;;4947593;28;20483;-52
2023/03/05 11:13:56;;;;;;;6.23;2.57;;;3.30;99.90;;;;;;4948576;28;20498;-51
2023/03/05 11:16:25;;;;;;;5.60;2.00;;;3.30;99.90;;;;;;4951142;29;20525;-52
2023/03/05 11:19:15;;;;;;;4.53;1.80;;;3.30;99.90;;;;;;4949892;28;20467;-52
2023/03/05 11:21:45;;;;;;;5.53;2.20;;;3.10;98.90;;;;;;4947818;29;21063;-52
2023/03/05 11:24:13;;;;;;;6.10;1.80;;;3.10;89.40;;;;;;4945861;28;20463;-51
2023/03/05 11:26:48;;;;;;;6.20;2.33;;;3.20;74.10;;;;;;4950810;28;20478;-52
2023/03/05 11:29:21;;;;;;;1.67;1.57;;;3.10;68.30;;;;;;4947175;28;20960;-51
2023/03/05 11:31:48;;;;;;;4.50;1.87;;;3.20;67.20;;;;;;4944395;28;20553;-52
2023/03/05 11:34:34;;;;;;;4.80;1.60;;;3.30;67.90;;;;;;4947493;28;20490;-52
2023/03/05 11:37:05;;;;;;;3.00;1.87;;;3.60;80.90;;;;;;4948022;28;20467;-51
2023/03/05 11:39:35;;;;;;;3.13;1.70;;;4.00;85.60;;;;;;4944482;29;20470;-51
2023/03/05 11:42:05;;;;;;;4.17;1.47;;;4.30;99.90;;;;;;4947841;28;20505;-52
2023/03/05 11:44:35;;;;;;;10.03;2.47;;;4.40;99.90;;;;;;4948838;29;20475;-52
2023/03/05 11:47:09;;;;;;;6.00;2.30;;;4.60;99.90;;;;;;4944608;28;20836;-52
2023/03/05 11:49:43;;;;;;;3.57;1.90;;;4.90;99.90;;;;;;4949175;28;20831;-51
2023/03/05 11:52:18;;;;;;;6.10;2.07;;;4.80;99.90;;;;;;4951401;28;20518;-51
2023/03/05 11:54:55;;;;;;;2.73;1.40;;;4.70;99.90;;;;;;4949596;29;20486;-51
2023/03/05 11:57:24;;;;;;;4.33;1.50;;;4.40;99.90;;;;;;4951584;28;20474;-51
2023/03/05 11:59:52;;;;;;;5.27;1.50;;;4.20;99.90;;;;;;4951381;28;21164;-51
2023/03/05 12:02:21;;;;;;;3.33;1.53;;;4.20;99.90;;;;;;4950345;28;20526;-52
2023/03/05 12:04:49;;;;;;;3.50;1.77;;;4.00;99.90;;;;;;4954543;28;20463;-52
2023/03/05 12:07:21;;;;;;;1.27;1.17;;;4.00;99.90;;;;;;4951821;28;20512;-52
2023/03/05 12:09:51;;;;;;;5.13;1.90;;;4.00;99.90;;;;;;4949524;29;20574;-51
2023/03/05 12:12:34;;;;;;;2.03;1.37;;;4.10;99.90;;;;;;4951156;28;20902;-51
2023/03/05 12:15:17;;;;;;;2.63;1.40;;;4.00;99.90;;;;;;4951436;28;20599;-51
2023/03/05 12:17:47;;;;;;;8.33;1.47;;;4.00;99.90;;;;;;4949348;28;20964;-52
2023/03/05 12:20:18;;;;;;;2.90;1.60;;;4.00;99.90;;;;;;4947993;28;20470;-52
2023/03/05 12:22:46;;;;;;;2.03;1.30;;;4.10;99.90;;;;;;4949201;28;21070;-51
2023/03/05 12:25:28;;;;;;;1.90;1.50;;;4.10;99.90;;;;;;4950411;28;20468;-52
2023/03/05 12:27:55;;;;;;;1.83;1.40;;;4.30;99.90;;;;;;4950147;28;20868;-53
2023/03/05 12:30:55;;;;;;;1.87;1.50;;;4.40;99.90;;;;;;4955751;28;20529;-52
2023/03/05 12:33:37;;;;;;;2.97;1.83;;;4.50;99.90;;;;;;4948104;29;20482;-52
2023/03/05 12:36:37;;;;;;;2.53;1.40;;;4.40;99.90;;;;;;4954480;28;20478;-52
2023/03/05 12:39:36;;;;;;;1.43;1.20;;;4.60;99.90;;;;;;4953029;28;20537;-53
2023/03/05 12:42:43;;;;;;;4.53;1.70;;;4.70;99.90;;;;;;4953344;28;21000;-52
2023/03/05 12:45:30;;;;;;;12.80;1.80;;;4.40;99.90;;;;;;4947146;28;20513;-52
2023/03/05 12:48:49;;;;;;;3.90;1.50;;;4.50;99.90;;;;;;4955391;28;20471;-52
2023/03/05 12:51:29;;;;;;;8.80;2.17;;;4.50;99.90;;;;;;4896022;29;20477;-51
2023/03/05 12:53:56;;;;;;;3.93;3.30;;;4.40;99.90;;;;;;4886044;29;20485;-52
2023/03/05 12:56:29;;;;;;;16.97;8.37;;;4.50;99.90;;;;;;4921539;28;20463;-51
2023/03/05 12:59:00;;;;;;;2.53;2.33;;;4.50;99.90;;;;;;4949745;28;20463;-51
2023/03/05 13:01:39;;;;;;;9.70;3.47;;;4.20;99.90;;;;;;4939848;28;20491;-51
2023/03/05 13:04:14;;;;;;;7.33;3.30;;;4.20;99.90;;;;;;4945848;28;20455;-51
2023/03/05 13:06:41;;;;;;;4.13;2.53;;;4.20;99.90;;;;;;4937310;28;20581;-51
2023/03/05 13:09:15;;;;;;;3.50;2.07;;;4.20;99.90;;;;;;4948626;28;20462;-51